createdAt,value
2019-04-22T00:02:02.408Z,5.30
2019-04-22T00:04:42.096Z,5.57
2019-04-22T00:07:22.982Z,5.30
2019-04-22T00:09:58.321Z,5.30
2019-04-22T00:12:32.786Z,5.00
2019-04-22T00:14:54.239Z,4.53
2019-04-22T00:17:38.844Z,4.60
2019-04-22T00:20:04.960Z,5.30
2019-04-22T00:22:29.167Z,5.07
2019-04-22T00:25:01.131Z,5.10
2019-04-22T00:27:35.628Z,6.20
2019-04-22T00:30:07.264Z,5.27
2019-04-22T00:32:38.262Z,4.77
2019-04-22T00:35:13.302Z,5.50
2019-04-22T00:37:43.825Z,4.87
2019-04-22T00:40:19.762Z,5.20
2019-04-22T00:42:47.217Z,5.83
2019-04-22T00:45:24.351Z,5.97
2019-04-22T00:47:43.387Z,5.27
2019-04-22T00:50:20.318Z,6.00
2019-04-22T00:52:50.922Z,5.13
2019-04-22T00:55:23.041Z,5.60
2019-04-22T00:58:00.111Z,5.60
2019-04-22T01:00:25.090Z,4.97
2019-04-22T01:02:57.070Z,4.00
2019-04-22T01:05:32.471Z,5.00
2019-04-22T01:08:04.391Z,5.00
2019-04-22T01:12:56.763Z,5.13
2019-04-22T01:15:28.909Z,5.00
2019-04-22T01:17:57.775Z,3.80
2019-04-22T01:20:58.927Z,4.03
2019-04-22T01:22:58.587Z,5.33
2019-04-22T01:25:34.869Z,5.70
2019-04-22T01:27:57.168Z,3.90
2019-04-22T01:30:25.888Z,4.40
2019-04-22T01:32:47.298Z,4.83
2019-04-22T01:35:31.026Z,3.70
2019-04-22T01:38:03.192Z,4.53
2019-04-22T01:40:45.526Z,4.17
2019-04-22T01:43:16.785Z,5.80
2019-04-22T01:45:49.871Z,4.03
2019-04-22T01:48:17.744Z,4.17
2019-04-22T01:50:48.532Z,5.13
2019-04-22T01:53:24.543Z,4.33
2019-04-22T01:58:10.872Z,5.77
2019-04-22T02:00:53.762Z,4.50
2019-04-22T02:03:27.842Z,4.67
2019-04-22T02:05:56.707Z,4.90
2019-04-22T02:08:31.393Z,4.47
2019-04-22T02:10:57.641Z,4.60
2019-04-22T02:13:26.891Z,5.20
2019-04-22T02:16:03.533Z,4.30
2019-04-22T02:18:31.795Z,4.47
2019-04-22T02:20:55.336Z,4.70
2019-04-22T02:28:52.412Z,4.30
2019-04-22T02:31:25.611Z,4.27
2019-04-22T02:49:11.679Z,4.57
2019-04-22T02:59:04.198Z,4.37
2019-04-22T03:11:52.540Z,4.77
2019-04-22T03:14:04.745Z,4.90
2019-04-22T03:16:40.595Z,3.87
2019-04-22T03:19:17.767Z,4.47
2019-04-22T03:21:37.591Z,4.57
2019-04-22T03:24:25.573Z,4.63
2019-04-22T03:26:45.792Z,4.07
2019-04-22T03:29:28.737Z,3.90
2019-04-22T03:32:32.684Z,4.17
2019-04-22T03:39:44.835Z,4.10
2019-04-22T03:42:07.849Z,3.50
2019-04-22T03:44:38.866Z,4.47
2019-04-22T03:49:51.907Z,4.20
2019-04-22T03:52:16.287Z,4.90
2019-04-22T03:54:49.902Z,4.57
2019-04-22T03:57:36.924Z,4.70
2019-04-22T04:02:21.389Z,4.00
2019-04-22T04:04:43.577Z,4.20
2019-04-22T04:09:50.000Z,4.57
2019-04-22T04:14:53.978Z,4.10
2019-04-22T04:17:34.787Z,3.80
2019-04-22T04:20:06.198Z,4.80
2019-04-22T04:25:14.760Z,5.70
2019-04-22T04:30:05.513Z,4.80
2019-04-22T04:40:20.676Z,5.00
2019-04-22T04:52:57.689Z,3.93
2019-04-22T04:55:18.500Z,3.73
2019-04-22T04:57:49.111Z,3.83
2019-04-22T05:07:55.400Z,3.60
2019-04-22T05:12:55.737Z,3.80
2019-04-22T05:20:24.225Z,3.53
2019-04-22T05:27:46.372Z,4.30
2019-04-22T05:35:20.729Z,3.90
2019-04-22T05:37:51.300Z,4.23
2019-04-22T05:42:49.452Z,3.70
2019-04-22T05:45:21.628Z,3.90
2019-04-22T05:47:51.908Z,4.43
2019-04-22T05:52:55.413Z,3.93
2019-04-22T05:55:32.380Z,3.30
2019-04-22T05:57:57.751Z,4.17
2019-04-22T06:08:08.250Z,3.80
2019-04-22T06:10:39.255Z,3.87
2019-04-22T06:13:01.011Z,3.90
2019-04-22T06:15:36.312Z,4.83
2019-04-22T06:18:15.982Z,4.23
2019-04-22T06:20:53.748Z,4.07
2019-04-22T06:23:30.723Z,4.50
2019-04-22T06:26:04.900Z,4.27
2019-04-22T06:28:29.078Z,4.50
2019-04-22T06:30:57.351Z,4.17
2019-04-22T06:33:31.557Z,3.67
2019-04-22T06:35:56.443Z,3.97
2019-04-22T06:38:42.649Z,4.00
2019-04-22T06:41:04.526Z,4.10
2019-04-22T06:43:29.594Z,3.37
2019-04-22T06:46:02.157Z,3.33
2019-04-22T06:48:33.105Z,4.87
2019-04-22T06:51:00.113Z,3.30
2019-04-22T06:53:37.287Z,4.00
2019-04-22T06:56:05.130Z,4.50
2019-04-22T06:58:36.655Z,4.20
2019-04-22T07:01:09.491Z,3.50
2019-04-22T07:03:42.761Z,3.47
2019-04-22T07:06:29.626Z,4.13
2019-04-22T07:09:09.364Z,3.87
2019-04-22T07:11:05.767Z,4.27
2019-04-22T07:13:43.483Z,4.00
2019-04-22T07:16:13.340Z,3.70
2019-04-22T07:18:45.208Z,4.10
2019-04-22T07:21:12.613Z,4.33
2019-04-22T07:23:51.360Z,3.50
2019-04-22T07:26:21.957Z,3.63
2019-04-22T07:28:46.707Z,3.50
2019-04-22T07:31:16.248Z,3.70
2019-04-22T07:34:12.870Z,3.40
2019-04-22T07:36:39.733Z,4.47
2019-04-22T07:38:43.841Z,3.63
2019-04-22T07:41:25.941Z,3.73
2019-04-22T07:44:08.978Z,3.00
2019-04-22T07:46:28.670Z,3.70
2019-04-22T07:49:10.867Z,3.40
2019-04-22T07:51:28.120Z,3.70
2019-04-22T07:53:57.358Z,4.40
2019-04-22T07:56:29.274Z,3.77
2019-04-22T07:58:55.838Z,4.50
2019-04-22T08:01:41.832Z,3.80
2019-04-22T08:06:31.339Z,3.40
2019-04-22T08:09:08.032Z,3.40
2019-04-22T08:11:43.806Z,4.43
2019-04-22T08:14:07.581Z,3.60
2019-04-22T08:16:37.080Z,3.80
2019-04-22T08:19:09.110Z,3.07
2019-04-22T08:21:38.461Z,3.70
2019-04-22T08:24:07.955Z,3.80
2019-04-22T08:26:42.130Z,3.40
2019-04-22T08:29:17.987Z,4.00
2019-04-22T08:31:43.648Z,3.50
2019-04-22T08:34:14.210Z,3.43
2019-04-22T08:36:58.912Z,3.70
2019-04-22T08:39:23.151Z,3.87
2019-04-22T08:41:43.514Z,4.00
2019-04-22T08:44:26.135Z,3.60
2019-04-22T08:46:48.593Z,3.37
2019-04-22T08:49:16.036Z,3.90
2019-04-22T08:51:49.073Z,3.50
2019-04-22T08:54:24.492Z,3.97
2019-04-22T08:56:58.259Z,3.63
2019-04-22T08:59:22.216Z,3.63
2019-04-22T09:01:57.430Z,3.27
2019-04-22T09:04:22.824Z,3.60
2019-04-22T09:07:21.219Z,3.87
2019-04-22T09:09:36.179Z,3.00
2019-04-22T09:12:00.001Z,3.30
2019-04-22T09:14:40.515Z,3.73
2019-04-22T09:17:10.176Z,3.43
2019-04-22T09:19:38.767Z,3.13
2019-04-22T09:24:40.795Z,3.80
2019-04-22T09:29:43.219Z,3.60
2019-04-22T09:32:14.266Z,3.37
2019-04-22T09:34:47.318Z,3.53
2019-04-22T09:39:53.392Z,3.77
2019-04-22T09:42:22.003Z,4.40
2019-04-22T09:44:49.169Z,3.90
2019-04-22T09:47:20.555Z,3.77
2019-04-22T09:49:55.258Z,4.00
2019-04-22T09:57:21.787Z,3.93
2019-04-22T09:59:57.757Z,4.03
2019-04-22T10:02:33.921Z,3.70
2019-04-22T10:07:27.024Z,3.90
2019-04-22T10:10:15.062Z,3.00
2019-04-22T10:12:33.815Z,3.73
2019-04-22T10:14:53.937Z,3.60
2019-04-22T10:17:32.445Z,4.27
2019-04-22T10:20:01.072Z,3.70
2019-04-22T10:25:08.264Z,3.53
2019-04-22T10:27:32.460Z,3.03
2019-04-22T10:30:06.062Z,3.60
2019-04-22T10:32:38.137Z,3.50
2019-04-22T10:35:04.956Z,3.53
2019-04-22T10:37:32.166Z,3.23
2019-04-22T10:40:04.774Z,3.27
2019-04-22T10:42:41.009Z,3.17
2019-04-22T10:45:12.372Z,3.17
2019-04-22T10:47:42.387Z,3.80
2019-04-22T10:50:14.440Z,3.00
2019-04-22T10:52:43.941Z,3.50
2019-04-22T10:55:13.838Z,3.60
2019-04-22T10:57:44.406Z,3.30
2019-04-22T11:00:15.623Z,3.10
2019-04-22T11:02:45.687Z,4.03
2019-04-22T11:05:16.711Z,2.90
2019-04-22T11:07:51.859Z,3.47
2019-04-22T11:10:33.528Z,3.10
2019-04-22T11:12:49.309Z,3.40
2019-04-22T11:15:18.811Z,2.93
2019-04-22T11:17:49.594Z,3.20
2019-04-22T11:20:21.793Z,3.17
2019-04-22T11:22:51.212Z,3.20
2019-04-22T11:25:21.675Z,2.87
2019-04-22T11:27:51.443Z,3.13
2019-04-22T11:30:24.056Z,3.30
2019-04-22T11:32:51.986Z,3.07
2019-04-22T11:35:21.827Z,3.47
2019-04-22T11:37:52.444Z,2.37
2019-04-22T11:40:28.778Z,3.00
2019-04-22T11:42:54.381Z,3.00
2019-04-22T11:45:24.028Z,2.90
2019-04-22T11:47:53.509Z,2.20
2019-04-22T11:50:24.227Z,3.10
2019-04-22T11:52:55.009Z,2.33
2019-04-22T11:55:24.738Z,2.70
2019-04-22T11:57:54.137Z,2.67
2019-04-22T12:00:36.817Z,2.43
2019-04-22T12:03:07.294Z,2.47
2019-04-22T12:05:37.608Z,3.33
2019-04-22T12:08:09.262Z,2.80
2019-04-22T12:10:46.865Z,2.57
2019-04-22T12:13:10.306Z,2.93
2019-04-22T12:15:40.821Z,2.70
2019-04-22T12:18:11.199Z,3.23
2019-04-22T12:20:41.462Z,3.10
2019-04-22T12:23:11.133Z,2.80
2019-04-22T12:25:51.713Z,3.07
2019-04-22T12:28:13.192Z,2.60
2019-04-22T12:30:43.521Z,3.10
2019-04-22T12:33:14.917Z,3.03
2019-04-22T12:35:44.405Z,2.83
2019-04-22T12:38:15.254Z,2.63
2019-04-22T12:40:52.507Z,3.17
2019-04-22T12:43:18.595Z,2.43
2019-04-22T12:45:47.953Z,3.10
2019-04-22T12:48:17.426Z,3.10
2019-04-22T12:50:50.044Z,2.90
2019-04-22T12:53:20.546Z,2.73
2019-04-22T12:55:50.184Z,2.63
2019-04-22T12:58:20.053Z,3.30
2019-04-22T13:00:51.444Z,2.40
2019-04-22T13:03:20.510Z,2.43
2019-04-22T13:05:51.412Z,3.00
2019-04-22T13:08:20.991Z,2.70
2019-04-22T13:10:58.419Z,2.53
2019-04-22T13:13:22.929Z,2.90
2019-04-22T13:15:53.092Z,3.13
2019-04-22T13:18:31.882Z,2.23
2019-04-22T13:20:54.628Z,2.93
2019-04-22T13:23:25.438Z,2.30
2019-04-22T13:25:54.934Z,2.53
2019-04-22T13:28:25.185Z,2.30
2019-04-22T13:30:54.813Z,2.20
2019-04-22T13:33:25.033Z,2.20
2019-04-22T13:35:54.455Z,2.10
2019-04-22T13:38:24.995Z,2.23
2019-04-22T13:41:07.285Z,2.10
2019-04-22T13:43:26.746Z,2.07
2019-04-22T13:45:56.516Z,2.30
2019-04-22T13:48:46.889Z,2.00
2019-04-22T13:54:37.135Z,1.77
2019-04-22T13:56:19.345Z,1.93
2019-04-22T13:58:44.800Z,1.80
2019-04-22T14:01:06.938Z,1.60
2019-04-22T14:03:54.641Z,1.97
2019-04-22T14:06:25.044Z,1.70
2019-04-22T14:08:55.689Z,1.90
2019-04-22T14:11:32.361Z,2.43
2019-04-22T14:13:56.724Z,2.03
2019-04-22T14:16:27.022Z,2.00
2019-04-22T14:18:57.997Z,2.20
2019-04-22T14:21:27.543Z,2.57
2019-04-22T14:23:58.401Z,1.80
2019-04-22T14:26:41.347Z,2.20
2019-04-22T14:28:59.976Z,1.90
2019-04-22T14:31:30.769Z,2.27
2019-04-22T14:34:04.970Z,2.00
2019-04-22T14:36:31.187Z,1.70
2019-04-22T14:39:01.924Z,2.00
2019-04-22T14:41:43.532Z,2.23
2019-04-22T14:45:07.201Z,2.20
2019-04-22T14:47:05.559Z,1.90
2019-04-22T14:49:35.469Z,2.27
2019-04-22T14:51:55.065Z,1.73
2019-04-22T14:54:24.205Z,1.90
2019-04-22T14:56:38.276Z,2.17
2019-04-22T14:59:09.185Z,2.47
2019-04-22T15:01:41.419Z,2.43
2019-04-22T15:04:10.902Z,2.17
2019-04-22T15:06:43.110Z,2.20
2019-04-22T15:09:12.230Z,2.20
2019-04-22T15:11:52.808Z,2.90
2019-04-22T15:14:12.680Z,2.30
2019-04-22T15:17:00.799Z,2.40
2019-04-22T15:19:52.019Z,2.13
2019-04-22T15:22:22.752Z,1.90
2019-04-22T15:24:52.399Z,1.80
2019-04-22T15:27:22.584Z,2.00
2019-04-22T15:29:53.570Z,2.10
2019-04-22T15:32:23.356Z,1.90
2019-04-22T15:34:53.399Z,2.10
2019-04-22T15:37:24.256Z,2.30
2019-04-22T15:39:56.307Z,2.60
2019-04-22T15:42:28.845Z,2.30
2019-04-22T15:44:55.961Z,2.57
2019-04-22T15:47:26.926Z,1.93
2019-04-22T15:49:56.359Z,2.33
2019-04-22T15:52:33.413Z,2.20
2019-04-22T15:54:56.723Z,1.93
2019-04-22T15:57:26.646Z,2.47
2019-04-22T16:00:10.648Z,2.07
2019-04-22T16:02:27.806Z,1.80
2019-04-22T16:04:58.768Z,1.70
2019-04-22T16:07:29.614Z,1.90
2019-04-22T16:09:59.633Z,1.93
2019-04-22T16:12:38.858Z,2.00
2019-04-22T16:15:03.077Z,1.90
2019-04-22T16:17:32.675Z,2.40
2019-04-22T16:20:03.529Z,2.70
2019-04-22T16:22:52.040Z,2.20
2019-04-22T16:25:45.107Z,2.60
2019-04-22T16:28:15.457Z,3.00
2019-04-22T16:30:45.534Z,2.60
2019-04-22T16:33:15.242Z,2.87
2019-04-22T16:35:44.997Z,3.70
2019-04-22T16:38:15.081Z,2.80
2019-04-22T16:40:44.983Z,3.20
2019-04-22T16:43:14.444Z,2.40
2019-04-22T16:45:43.780Z,2.73
2019-04-22T16:48:13.692Z,3.87
2019-04-22T16:50:45.026Z,3.30
2019-04-22T16:53:14.280Z,3.50
2019-04-22T16:55:44.682Z,3.27
2019-04-22T16:58:14.872Z,2.83
2019-04-22T17:00:45.195Z,3.10
2019-04-22T17:03:46.818Z,3.07
2019-04-22T17:06:19.420Z,2.60
2019-04-22T17:08:48.944Z,3.40
2019-04-22T17:11:18.296Z,2.90
2019-04-22T17:13:48.117Z,2.83
2019-04-22T17:16:20.068Z,2.97
2019-04-22T17:18:50.053Z,2.70
2019-04-22T17:21:19.747Z,3.17
2019-04-22T17:23:49.874Z,2.90
2019-04-22T17:26:20.611Z,2.90
2019-04-22T17:28:51.321Z,2.60
2019-04-22T17:31:20.752Z,3.20
2019-04-22T17:33:50.816Z,2.80
2019-04-22T17:36:20.333Z,3.03
2019-04-22T17:38:59.933Z,2.90
2019-04-22T17:41:28.561Z,3.50
2019-04-22T17:44:18.967Z,2.60
2019-04-22T17:46:51.365Z,3.47
2019-04-22T17:49:37.404Z,2.87
2019-04-22T17:52:21.216Z,3.40
2019-04-22T17:54:50.444Z,2.87
2019-04-22T17:57:22.533Z,3.50
2019-04-22T17:59:50.594Z,3.17
2019-04-22T18:02:24.202Z,3.27
2019-04-22T18:04:44.984Z,2.80
2019-04-22T18:07:35.613Z,3.23
2019-04-22T18:10:24.325Z,2.50
2019-04-22T18:15:07.134Z,2.97
2019-04-22T18:17:35.166Z,3.00
2019-04-22T18:20:00.335Z,3.20
2019-04-22T18:22:21.867Z,2.63
2019-04-22T18:24:58.382Z,2.50
2019-04-22T18:27:45.715Z,2.27
2019-04-22T18:30:01.947Z,3.00
2019-04-22T18:32:32.645Z,2.30
2019-04-22T18:35:07.334Z,2.30
2019-04-22T18:37:40.297Z,2.60
2019-04-22T18:40:12.011Z,2.13
2019-04-22T18:42:32.759Z,2.10
2019-04-22T18:45:34.448Z,2.83
2019-04-22T18:47:38.734Z,2.20
2019-04-22T18:50:08.589Z,2.07
2019-04-22T18:53:11.019Z,2.23
2019-04-22T18:55:44.571Z,3.50
2019-04-22T18:58:16.832Z,2.07
2019-04-22T19:00:36.218Z,1.93
2019-04-22T19:03:14.168Z,1.90
2019-04-22T19:06:02.606Z,2.50
2019-04-22T19:08:31.664Z,2.73
2019-04-22T19:16:19.624Z,1.93
2019-04-22T19:18:41.822Z,2.40
2019-04-22T19:21:37.997Z,2.13
2019-04-22T19:23:40.681Z,2.30
2019-04-22T19:26:11.906Z,2.00
2019-04-22T19:28:42.380Z,1.83
2019-04-22T19:31:17.266Z,2.23
2019-04-22T19:33:40.538Z,2.00
2019-04-22T19:36:14.950Z,2.00
2019-04-22T19:38:31.273Z,2.03
2019-04-22T19:41:21.301Z,1.93
2019-04-22T19:43:47.278Z,2.20
2019-04-22T19:46:15.180Z,2.13
2019-04-22T19:48:50.022Z,2.20
2019-04-22T19:51:25.142Z,2.07
2019-04-22T19:53:52.417Z,2.63
2019-04-22T19:56:17.538Z,1.93
2019-04-22T19:58:47.699Z,2.20
2019-04-22T20:01:48.560Z,1.33
2019-04-22T20:04:37.776Z,1.80
2019-04-22T20:07:24.829Z,1.90
2019-04-22T20:09:55.350Z,2.03
2019-04-22T20:12:21.332Z,1.93
2019-04-22T20:14:54.506Z,1.97
2019-04-22T20:17:26.648Z,2.83
2019-04-22T20:20:18.176Z,2.23
2019-04-22T20:22:25.978Z,2.47
2019-04-22T20:24:47.146Z,2.40
2019-04-22T20:27:31.710Z,2.23
2019-04-22T20:30:04.600Z,2.67
2019-04-22T20:32:32.669Z,2.70
2019-04-22T20:35:02.985Z,2.30
2019-04-22T20:37:38.556Z,2.53
2019-04-22T20:40:05.486Z,2.63
2019-04-22T20:42:43.716Z,2.57
2019-04-22T20:45:09.591Z,2.50
2019-04-22T20:47:31.962Z,2.10
2019-04-22T20:50:14.362Z,2.70
2019-04-22T20:52:46.873Z,2.73
2019-04-22T20:55:08.200Z,4.40
2019-04-22T20:57:48.002Z,2.77
2019-04-22T21:00:08.980Z,2.80
2019-04-22T21:02:36.274Z,2.13
2019-04-22T21:05:04.277Z,2.80
2019-04-22T21:07:38.719Z,2.50
2019-04-22T21:10:11.432Z,2.37
2019-04-22T21:12:39.686Z,2.90
2019-04-22T21:15:29.867Z,2.70
2019-04-22T21:17:50.944Z,2.90
2019-04-22T21:20:26.121Z,2.87
2019-04-22T21:22:55.218Z,2.73
2019-04-22T21:25:19.599Z,3.03
2019-04-22T21:27:59.808Z,3.10
2019-04-22T21:30:29.165Z,2.90
2019-04-22T21:32:54.824Z,2.73
2019-04-22T21:35:47.469Z,3.43
2019-04-22T21:38:01.877Z,2.90
2019-04-22T21:40:35.566Z,2.33
2019-04-22T21:43:10.694Z,2.40
2019-04-22T21:45:27.817Z,2.67
2019-04-22T21:53:14.575Z,2.20
2019-04-22T21:55:43.538Z,2.87
2019-04-22T21:58:19.519Z,2.97
2019-04-22T22:01:06.424Z,2.80
2019-04-22T22:03:38.439Z,2.73
2019-04-22T22:05:58.846Z,3.77
2019-04-22T22:08:40.230Z,2.50
2019-04-22T22:11:06.487Z,2.67
2019-04-22T22:13:38.707Z,2.80
2019-04-22T22:16:06.627Z,3.10
2019-04-22T22:18:34.995Z,2.73
2019-04-22T22:21:28.253Z,2.83
2019-04-22T22:23:45.650Z,4.10
2019-04-22T22:26:09.399Z,4.27
2019-04-22T22:28:52.185Z,3.47
2019-04-22T22:31:24.765Z,2.63
2019-04-22T22:33:49.670Z,3.00
2019-04-22T22:36:13.679Z,2.70
2019-04-22T22:38:45.645Z,2.97
2019-04-22T22:41:00.143Z,2.73
2019-04-22T22:43:34.968Z,3.20
2019-04-22T22:46:12.346Z,3.53
2019-04-22T22:48:52.033Z,3.43
2019-04-22T22:51:27.433Z,2.97
2019-04-22T22:53:58.134Z,3.47
2019-04-22T22:56:28.859Z,2.60
2019-04-22T22:59:01.863Z,3.23
2019-04-22T23:01:29.936Z,3.30
2019-04-22T23:03:57.080Z,3.13
2019-04-22T23:06:36.975Z,3.17
2019-04-22T23:09:05.701Z,3.67
2019-04-22T23:11:53.762Z,2.83
2019-04-22T23:14:02.448Z,3.27
2019-04-22T23:16:22.230Z,4.40
2019-04-22T23:19:02.741Z,3.60
2019-04-22T23:21:39.738Z,4.07
2019-04-22T23:24:33.180Z,3.80
2019-04-22T23:27:03.134Z,3.80
2019-04-22T23:29:57.484Z,4.23
2019-04-22T23:32:26.944Z,4.57
2019-04-22T23:35:10.441Z,4.53
2019-04-22T23:37:39.403Z,3.60
2019-04-22T23:40:24.382Z,4.20
2019-04-22T23:42:44.638Z,3.90
2019-04-22T23:45:14.019Z,3.80
2019-04-22T23:47:39.082Z,3.67
2019-04-22T23:50:24.344Z,3.90
2019-04-22T23:52:58.858Z,4.00
2019-04-22T23:55:35.419Z,4.20
2019-04-22T23:58:05.087Z,4.33
